Time;durP1;ratioP1;P1;durP2;ratioP2;P2;SDS_P1;SDS_P2;PMS_P1;PMS_P2;Temp;Humidity;BMP_temperature;BMP_pressure;BME280_temperature;BME280_humidity;BME280_pressure;Samples;Min_cycle;Max_cycle;Signal;HPM_P1;HPM_P2
2023/02/15 00:01:18;;;;;;;;;;;;;;;17.60;59.03;102514.52;2310975;76;50662;-73
2023/02/15 00:04:21;;;;;;;;;;;;;;;17.60;58.94;102510.51;2314854;76;49949;-73
2023/02/15 00:07:22;;;;;;;;;;;;;;;17.58;58.97;102509.78;2319034;76;51511;-74
2023/02/15 00:10:24;;;;;;;;;;;;;;;17.56;59.06;102519.77;2320916;76;51000;-73
2023/02/15 00:13:25;;;;;;;;;;;;;;;17.54;59.08;102515.87;2320903;76;50221;-73
2023/02/15 00:16:27;;;;;;;;;;;;;;;17.54;59.09;102510.52;2318999;76;50294;-73
2023/02/15 00:19:28;;;;;;;;;;;;;;;17.54;59.16;102518.55;2320927;76;50660;-74
2023/02/15 00:22:30;;;;;;;;;;;;;;;17.52;59.23;102512.50;2320837;76;52481;-73
2023/02/15 00:25:32;;;;;;;;;;;;;;;17.55;59.23;102502.86;2321045;76;51528;-73
2023/02/15 00:28:33;;;;;;;;;;;;;;;17.57;59.30;102500.91;2321161;76;50749;-73
2023/02/15 00:31:35;;;;;;;;;;;;;;;17.59;59.28;102492.73;2302833;76;51460;-73
2023/02/15 00:34:36;;;;;;;;;;;;;;;17.57;59.18;102500.91;2320938;76;51635;-72
2023/02/15 00:37:38;;;;;;;;;;;;;;;17.57;59.72;102493.34;2321212;75;51468;-73
2023/02/15 00:40:39;;;;;;;;;;;;;;;17.58;59.55;102491.05;2319411;76;51423;-73
2023/02/15 00:43:41;;;;;;;;;;;;;;;17.58;59.28;102483.86;2321225;76;51507;-73
2023/02/15 00:46:43;;;;;;;;;;;;;;;17.55;59.40;102488.14;2321271;76;52610;-72
2023/02/15 00:49:44;;;;;;;;;;;;;;;17.56;59.35;102485.81;2319314;76;50001;-73
2023/02/15 00:52:46;;;;;;;;;;;;;;;17.56;59.43;102487.16;2321206;76;50053;-73
2023/02/15 00:55:47;;;;;;;;;;;;;;;17.59;59.44;102487.37;2321291;76;50366;-73
2023/02/15 00:58:49;;;;;;;;;;;;;;;17.60;59.46;102489.94;2321217;76;51653;-73
2023/02/15 01:01:51;;;;;;;;;;;;;;;17.60;59.33;102487.76;2315500;76;50196;-73
2023/02/15 01:04:52;;;;;;;;;;;;;;;17.60;59.19;102485.08;2270694;77;50391;-72
2023/02/15 01:07:54;;;;;;;;;;;;;;;17.60;59.22;102485.08;2270749;77;50634;-72
2023/02/15 01:10:55;;;;;;;;;;;;;;;17.59;59.08;102485.55;2270794;78;51509;-72
2023/02/15 01:13:57;;;;;;;;;;;;;;;17.57;59.09;102478.16;2272851;77;51424;-72
2023/02/15 01:16:59;;;;;;;;;;;;;;;17.55;59.30;102478.77;2270728;77;51387;-72
2023/02/15 01:20:00;;;;;;;;;;;;;;;17.57;59.26;102473.27;2270948;78;51662;-72
2023/02/15 01:23:02;;;;;;;;;;;;;;;17.56;59.35;102467.57;2247413;78;52255;-73
2023/02/15 01:26:03;;;;;;;;;;;;;;;17.56;59.30;102465.73;2270760;78;51602;-73
2023/02/15 01:29:05;;;;;;;;;;;;;;;17.60;59.26;102455.14;2270839;77;51432;-73
2023/02/15 01:32:07;;;;;;;;;;;;;;;17.60;59.23;102457.81;2313804;76;51542;-72
2023/02/15 01:35:08;;;;;;;;;;;;;;;17.60;59.20;102455.14;2319614;76;52331;-73
2023/02/15 01:38:10;;;;;;;;;;;;;;;17.60;58.92;102447.11;2321089;76;51545;-73
2023/02/15 01:41:22;;;;;;;;;;;;;;;17.58;59.41;102438.85;2321147;76;51385;-73
2023/02/15 01:44:42;;;;;;;;;;;;;;;17.58;59.26;102437.02;2321148;76;24481;-72
2023/02/15 01:47:44;;;;;;;;;;;;;;;17.58;59.29;102439.70;2319496;76;52381;-73
2023/02/15 01:50:47;;;;;;;;;;;;;;;17.58;59.25;102428.14;2308886;76;51622;-73
2023/02/15 01:53:52;;;;;;;;;;;;;;;17.56;59.18;102425.59;2319724;76;50505;-73
2023/02/15 01:56:55;;;;;;;;;;;;;;;17.52;59.30;102421.50;2314536;76;50788;-73
2023/02/15 01:59:57;;;;;;;;;;;;;;;17.56;59.34;102417.56;2285014;76;51751;-72
2023/02/15 02:03:02;;;;;;;;;;;;;;;17.57;59.29;102416.59;2318977;76;51218;-72
2023/02/15 02:06:03;;;;;;;;;;;;;;;17.63;59.15;102409.36;2319147;76;50308;-73
2023/02/15 02:09:05;;;;;;;;;;;;;;;17.65;59.10;102411.92;2321197;75;51485;-73
2023/02/15 02:12:07;;;;;;;;;;;;;;;17.60;59.35;102409.63;2318956;76;51544;-72
2023/02/15 02:15:08;;;;;;;;;;;;;;;17.61;59.28;102403.78;2319212;76;51375;-73
2023/02/15 02:18:11;;;;;;;;;;;;;;;17.60;59.17;102396.25;2319893;75;50450;-72
2023/02/15 02:21:24;;;;;;;;;;;;;;;17.58;59.05;102397.36;2320442;76;50883;-73
2023/02/15 02:24:33;;;;;;;;;;;;;;;17.55;59.23;102394.47;2295062;76;52342;-72
2023/02/15 02:27:53;;;;;;;;;;;;;;;17.51;59.36;102392.18;2309870;76;51600;-73
2023/02/15 02:30:56;;;;;;;;;;;;;;;17.53;59.35;102391.56;2300929;76;50335;-73
2023/02/15 02:34:16;;;;;;;;;;;;;;;17.51;59.35;102390.84;2310592;76;50364;-73
2023/02/15 02:37:24;;;;;;;;;;;;;;;17.49;59.36;102389.63;2324911;76;51775;-73
2023/02/15 02:40:37;;;;;;;;;;;;;;;17.49;59.39;102383.43;2310493;76;50286;-73
2023/02/15 02:43:40;;;;;;;;;;;;;;;17.50;59.08;102384.65;2321019;76;50773;-74
2023/02/15 02:46:49;;;;;;;;;;;;;;;17.51;59.38;102374.29;2319615;76;50719;-73
2023/02/15 02:49:55;;;;;;;;;;;;;;;17.53;59.30;102375.50;2283057;76;51208;-73
2023/02/15 02:52:57;;;;;;;;;;;;;;;17.53;59.26;102372.33;2293585;76;51574;-73
2023/02/15 02:56:01;;;;;;;;;;;;;;;17.53;59.23;102371.48;2299582;76;51574;-74
2023/02/15 02:59:04;;;;;;;;;;;;;;;17.53;59.12;102366.98;2297318;76;50653;-74
2023/02/15 03:02:12;;;;;;;;;;;;;;;17.53;59.00;102366.98;2248846;78;51731;-73
2023/02/15 03:05:15;;;;;;;;;;;;;;;17.51;59.25;102370.77;2271841;77;23036;-73
2023/02/15 03:08:21;;;;;;;;;;;;;;;17.48;59.34;102354.98;2271066;78;50441;-72
2023/02/15 03:11:20;;;;;;;;;;;;;;;17.50;59.27;102352.53;2270546;77;22283;-72
2023/02/15 03:14:22;;;;;;;;;;;;;;;17.52;59.21;102357.27;2247379;78;52496;-73
2023/02/15 03:17:24;;;;;;;;;;;;;;;17.51;59.21;102351.54;2270778;77;50630;-73
2023/02/15 03:20:27;;;;;;;;;;;;;;;17.51;59.26;102351.54;2270769;78;50269;-73
2023/02/15 03:23:28;;;;;;;;;;;;;;;17.52;59.05;102344.35;2270969;76;50429;-73
2023/02/15 03:26:30;;;;;;;;;;;;;;;17.52;59.08;102354.59;2276500;76;51141;-72
2023/02/15 03:29:32;;;;;;;;;;;;;;;17.52;58.99;102350.58;2301226;76;50255;-72
2023/02/15 03:32:33;;;;;;;;;;;;;;;17.52;59.25;102346.56;2320962;76;50434;-72
2023/02/15 03:35:42;;;;;;;;;;;;;;;17.52;59.20;102349.23;2321127;76;50299;-73
2023/02/15 03:38:45;;;;;;;;;;;;;;;17.51;59.16;102340.84;2308775;76;51508;-72
2023/02/15 03:41:54;;;;;;;;;;;;;;;17.48;59.24;102337.09;2321073;76;51461;-71
2023/02/15 03:45:00;;;;;;;;;;;;;;;17.48;59.26;102337.59;2320784;75;51597;-73
2023/02/15 03:48:01;;;;;;;;;;;;;;;17.49;59.28;102334.77;2304238;76;51335;-72
2023/02/15 03:54:43;;;;;;;;;;;;;;;17.48;59.40;102335.75;2321195;76;22264;-73
2023/02/15 04:04:27;;;;;;;;;;;;;;;17.50;59.14;102321.76;2319552;76;22371;-72
2023/02/15 04:07:28;;;;;;;;;;;;;;;17.49;59.06;102316.03;2319174;76;50436;-72
2023/02/15 04:13:56;;;;;;;;;;;;;;;17.47;59.33;102317.14;2321155;76;22407;-73
2023/02/15 04:16:52;;;;;;;;;;;;;;;17.47;59.25;102320.69;2319473;76;22535;-74
2023/02/15 04:26:33;;;;;;;;;;;;;;;17.52;59.21;102311.77;2303846;76;22539;-72
2023/02/15 04:29:34;;;;;;;;;;;;;;;17.55;59.21;102302.13;2265247;78;49830;-72
2023/02/15 04:32:36;;;;;;;;;;;;;;;17.50;59.29;102303.02;2273591;78;51540;-73
2023/02/15 04:35:37;;;;;;;;;;;;;;;17.51;59.15;102306.05;2274061;78;50876;-72
2023/02/15 04:38:39;;;;;;;;;;;;;;;17.51;59.08;102302.03;2275974;77;51468;-73
2023/02/15 04:41:41;;;;;;;;;;;;;;;17.51;58.97;102303.86;2273718;78;52485;-72
2023/02/15 04:44:43;;;;;;;;;;;;;;;17.49;59.01;102299.12;2275736;77;50186;-74
2023/02/15 04:47:44;;;;;;;;;;;;;;;17.49;59.02;102297.30;2273813;77;51486;-73
2023/02/15 04:50:46;;;;;;;;;;;;;;;17.48;59.16;102291.59;2273906;76;51506;-72
2023/02/15 04:53:47;;;;;;;;;;;;;;;17.46;59.11;102290.87;2275891;77;51468;-73
2023/02/15 04:56:49;;;;;;;;;;;;;;;17.50;59.24;102280.77;2290488;76;51645;-72
2023/02/15 04:59:50;;;;;;;;;;;;;;;17.53;59.18;102281.33;2307162;76;50265;-72
2023/02/15 05:02:52;;;;;;;;;;;;;;;17.53;59.16;102271.97;2318871;76;49957;-72
2023/02/15 05:05:54;;;;;;;;;;;;;;;17.53;59.23;102266.61;2321001;76;51659;-72
2023/02/15 05:08:55;;;;;;;;;;;;;;;17.50;59.21;102261.54;2321070;75;51408;-72
2023/02/15 05:11:57;;;;;;;;;;;;;;;17.51;59.19;102255.69;2318876;76;50266;-73
2023/02/15 05:14:58;;;;;;;;;;;;;;;17.52;59.23;102258.70;2319126;76;50437;-72
2023/02/15 05:18:01;;;;;;;;;;;;;;;17.52;59.16;102251.55;2320890;76;51180;-71
2023/02/15 05:21:03;;;;;;;;;;;;;;;17.50;59.11;102253.52;2317970;76;52347;-71
2023/02/15 05:28:19;;;;;;;;;;;;;;;17.51;59.16;102253.02;2287234;76;51478;-70
2023/02/15 05:30:28;;;;;;;;;;;;;;;17.50;59.06;102256.19;2286127;76;24402;-72
2023/02/15 05:33:30;;;;;;;;;;;;;;;17.53;59.08;102248.38;2285635;77;50304;-72
2023/02/15 05:36:31;;;;;;;;;;;;;;;17.60;58.82;102246.85;2285773;77;50285;-71
2023/02/15 05:39:33;;;;;;;;;;;;;;;17.62;58.65;102247.07;2285780;77;49898;-71
2023/02/15 05:42:34;;;;;;;;;;;;;;;17.59;58.44;102246.48;2262047;78;50097;-72
2023/02/15 05:45:36;;;;;;;;;;;;;;;17.56;58.43;102250.27;2285699;78;50808;-71
2023/02/15 05:48:37;;;;;;;;;;;;;;;17.53;58.45;102245.20;2287822;76;51503;-71
2023/02/15 05:51:39;;;;;;;;;;;;;;;17.51;58.51;102243.65;2326916;75;51391;-72
2023/02/15 05:54:41;;;;;;;;;;;;;;;17.49;58.56;102235.74;2307732;76;52530;-70
2023/02/15 05:57:42;;;;;;;;;;;;;;;17.48;58.51;102236.73;2313997;76;51052;-71
2023/02/15 06:00:44;;;;;;;;;;;;;;;17.48;58.46;102238.08;2323441;76;50232;-72
2023/02/15 06:03:45;;;;;;;;;;;;;;;17.48;58.47;102235.40;2308713;75;49955;-71
2023/02/15 06:06:47;;;;;;;;;;;;;;;17.50;58.36;102241.47;2314271;76;51428;-71
2023/02/15 06:09:49;;;;;;;;;;;;;;;17.52;58.38;102238.17;2328608;76;52328;-70
2023/02/15 06:12:50;;;;;;;;;;;;;;;17.57;58.32;102240.41;2333807;75;51540;-70
2023/02/15 06:15:52;;;;;;;;;;;;;;;17.58;58.30;102238.95;2321070;76;50332;-72
2023/02/15 06:18:53;;;;;;;;;;;;;;;17.59;58.85;102236.61;2305678;75;50232;-70
2023/02/15 06:21:55;;;;;;;;;;;;;;;17.56;59.88;102234.72;2275245;76;51747;-70
2023/02/15 06:24:56;;;;;;;;;;;;;;;17.57;59.66;102240.41;2300960;76;51237;-70
2023/02/15 06:27:58;;;;;;;;;;;;;;;17.53;59.19;102235.84;2287940;76;51549;-70
2023/02/15 06:31:00;;;;;;;;;;;;;;;17.54;58.96;102240.19;2291568;76;50713;-71
2023/02/15 06:34:01;;;;;;;;;;;;;;;17.51;59.65;102240.47;2295687;76;51316;-70
2023/02/15 06:37:03;;;;;;;;;;;;;;;17.52;59.04;102231.48;2314192;76;50293;-70
2023/02/15 06:40:05;;;;;;;;;;;;;;;17.51;58.98;102232.94;2292894;76;50632;-71
2023/02/15 06:43:07;;;;;;;;;;;;;;;17.52;58.91;102230.14;2285445;76;50317;-71
2023/02/15 06:46:08;;;;;;;;;;;;;;;17.56;58.74;102228.86;2254288;78;51160;-75
2023/02/15 06:49:10;;;;;;;;;;;;;;;17.62;58.60;102231.01;2279266;77;50643;-75
2023/02/15 06:52:12;;;;;;;;;;;;;;;17.71;58.45;102223.97;2253980;76;52317;-74
2023/02/15 06:55:13;;;;;;;;;;;;;;;17.79;58.27;102229.97;2299850;76;51471;-75
2023/02/15 06:58:15;;;;;;;;;;;;;;;17.79;58.23;102224.14;2259631;76;51135;-75
2023/02/15 07:01:16;;;;;;;;;;;;;;;17.81;58.12;102229.38;2251320;76;50033;-75
2023/02/15 07:04:18;;;;;;;;;;;;;;;17.84;57.94;102231.77;2306783;76;52482;-74
2023/02/15 07:07:20;;;;;;;;;;;;;;;17.79;57.96;102221.94;2270935;78;50273;-75
2023/02/15 07:10:21;;;;;;;;;;;;;;;17.74;58.01;102217.48;2272719;77;51509;-75
2023/02/15 07:13:23;;;;;;;;;;;;;;;17.64;58.29;102220.98;2272670;77;51414;-74
2023/02/15 07:16:24;;;;;;;;;;;;;;;17.62;58.52;102216.28;2272837;77;51350;-75
2023/02/15 07:19:26;;;;;;;;;;;;;;;17.63;58.27;102213.95;2272695;77;53575;-75
2023/02/15 07:22:28;;;;;;;;;;;;;;;17.67;58.24;102217.19;2247470;78;52331;-74
2023/02/15 07:25:29;;;;;;;;;;;;;;;17.79;57.91;102209.88;2272623;77;51468;-75
2023/02/15 07:28:31;;;;;;;;;;;;;;;17.85;57.67;102217.38;2270684;78;50210;-75
2023/02/15 07:31:33;;;;;;;;;;;;;;;17.86;57.56;102202.19;2284812;76;51489;-76
2023/02/15 07:34:34;;;;;;;;;;;;;;;17.86;57.57;102200.84;2308717;76;52378;-75
2023/02/15 07:37:36;;;;;;;;;;;;;;;17.85;57.52;102195.95;2319065;75;49942;-75
2023/02/15 07:40:37;;;;;;;;;;;;;;;17.83;57.48;102191.27;2319206;76;50266;-74
2023/02/15 07:43:41;;;;;;;;;;;;;;;17.76;57.64;102190.93;2318974;76;50342;-75
2023/02/15 07:46:42;;;;;;;;;;;;;;;17.71;57.71;102182.97;2295770;76;52562;-75
2023/02/15 07:49:45;;;;;;;;;;;;;;;17.63;57.98;102186.34;2319860;75;50744;-75
2023/02/15 07:52:46;;;;;;;;;;;;;;;17.58;58.19;102186.75;2319871;76;50396;-75
2023/02/15 07:55:48;;;;;;;;;;;;;;;17.64;57.99;102184.84;2322257;76;50689;-75
2023/02/15 07:58:51;;;;;;;;;;;;;;;17.64;57.98;102174.64;2321916;76;51568;-74
2023/02/15 08:01:55;;;;;;;;;;;;;;;17.77;57.66;102170.35;2287258;76;50718;-75
2023/02/15 08:04:56;;;;;;;;;;;;;;;17.82;57.83;102173.48;2287828;77;22102;-76
2023/02/15 08:07:58;;;;;;;;;;;;;;;17.77;58.07;102169.02;2315306;75;51595;-75
2023/02/15 08:14:21;;;;;;;;;;;;;;;17.77;58.34;102170.35;2321566;76;22434;-75
2023/02/15 08:17:23;;;;;;;;;;;;;;;17.80;58.00;102172.30;2306834;75;52381;-75
2023/02/15 08:20:25;;;;;;;;;;;;;;;17.76;58.11;102170.85;2287940;76;51523;-75
2023/02/15 08:23:26;;;;;;;;;;;;;;;17.73;58.17;102171.14;2304709;75;51586;-74
2023/02/15 08:26:28;;;;;;;;;;;;;;;17.69;58.24;102168.87;2307939;76;51518;-74
2023/02/15 08:29:30;;;;;;;;;;;;;;;17.62;58.39;102172.13;2320966;75;50599;-74
2023/02/15 08:32:32;;;;;;;;;;;;;;;17.54;58.59;102173.28;2320390;75;51492;-74
2023/02/15 08:35:34;;;;;;;;;;;;;;;17.62;58.53;102177.47;2288076;76;51119;-73
2023/02/15 08:38:35;;;;;;;;;;;;;;;17.71;58.29;102169.59;2287381;75;52360;-73
2023/02/15 08:41:37;;;;;;;;;;;;;;;17.77;58.06;102159.64;2320884;76;51552;-74
2023/02/15 08:44:39;;;;;;;;;;;;;;;17.79;57.99;102165.70;2308779;76;51523;-74
2023/02/15 08:47:41;;;;;;;;;;;;;;;17.76;58.01;102159.30;2248002;75;52538;-74
2023/02/15 08:50:42;;;;;;;;;;;;;;;17.71;58.13;102151.69;2289072;76;51558;-73
2023/02/15 08:53:45;;;;;;;;;;;;;;;17.69;58.14;102147.45;2320732;76;50411;-74
2023/02/15 08:56:47;;;;;;;;;;;;;;;17.64;58.22;102149.21;2319337;75;51659;-73
2023/02/15 08:59:50;;;;;;;;;;;;;;;17.62;58.23;102140.00;2320524;75;50184;-74
2023/02/15 09:02:52;;;;;;;;;;;;;;;17.56;58.37;102135.69;2307680;76;22138;-73
2023/02/15 09:05:55;;;;;;;;;;;;;;;17.53;58.32;102125.27;2320988;75;50332;-74
2023/02/15 09:08:57;;;;;;;;;;;;;;;17.55;58.39;102132.17;2320549;75;50308;-75
2023/02/15 09:11:58;;;;;;;;;;;;;;;17.56;58.35;102121.81;2306741;76;51103;-73
2023/02/15 09:15:00;;;;;;;;;;;;;;;17.73;57.91;102123.45;2306300;75;52415;-73
2023/02/15 09:18:05;;;;;;;;;;;;;;;17.81;57.63;102122.27;2283158;76;51733;-73
2023/02/15 09:21:08;;;;;;;;;;;;;;;17.81;57.55;102123.11;2321190;76;22442;-73
2023/02/15 09:24:10;;;;;;;;;;;;;;;17.85;57.39;102116.97;2308702;75;50684;-74
2023/02/15 09:27:12;;;;;;;;;;;;;;;17.83;57.33;102125.66;2298966;75;50114;-73
2023/02/15 09:30:13;;;;;;;;;;;;;;;17.82;57.36;102123.95;2319300;76;50170;-73
2023/02/15 09:33:15;;;;;;;;;;;;;;;17.77;57.47;102124.34;2319099;76;51429;-73
2023/02/15 09:36:18;;;;;;;;;;;;;;;17.70;57.63;102127.25;2321177;76;51005;-74
2023/02/15 09:39:19;;;;;;;;;;;;;;;;;;2319264;76;50299;-74
2023/02/15 09:42:37;;;;;;;;;;;;;;;17.54;58.02;102126.45;2319023;76;50448;-74
2023/02/15 09:45:46;;;;;;;;;;;;;;;17.57;57.92;102131.55;2319194;76;50780;-74
2023/02/15 09:48:50;;;;;;;;;;;;;;;17.63;57.76;102128.80;2319074;76;50146;-74
2023/02/15 09:51:59;;;;;;;;;;;;;;;17.73;57.50;102130.14;2291464;76;51207;-73
2023/02/15 09:55:05;;;;;;;;;;;;;;;17.82;57.24;102128.80;2280352;76;50803;-74
2023/02/15 09:58:25;;;;;;;;;;;;;;;17.88;56.99;102119.85;2285466;76;50779;-72
2023/02/15 10:01:40;;;;;;;;;;;;;;;17.93;56.87;102114.45;2296706;76;51464;-71
2023/02/15 10:04:46;;;;;;;;;;;;;;;17.79;57.17;102117.52;2290319;76;50682;-72
2023/02/15 10:08:02;;;;;;;;;;;;;;;17.75;57.23;102116.09;2297964;76;51509;-70
2023/02/15 10:11:38;;;;;;;;;;;;;;;17.72;57.34;102109.69;2286684;76;52224;-71
2023/02/15 10:14:27;;;;;;;;;;;;;;;17.69;57.47;102119.34;2294967;76;23340;-71
2023/02/15 10:17:34;;;;;;;;;;;;;;;17.62;57.67;102112.36;2288324;75;51094;-70
2023/02/15 10:20:40;;;;;;;;;;;;;;;17.65;57.62;102109.43;2291476;76;51509;-70
2023/02/15 10:23:48;;;;;;;;;;;;;;;17.59;57.68;102112.66;2291433;76;50383;-71
2023/02/15 10:26:50;;;;;;;;;;;;;;;17.66;57.58;102111.11;2307109;76;50280;-72
2023/02/15 10:30:02;;;;;;;;;;;;;;;17.80;57.21;102100.48;2292192;76;50607;-71
2023/02/15 10:33:06;;;;;;;;;;;;;;;17.85;57.02;102092.87;2302438;76;51512;-71
2023/02/15 10:36:09;;;;;;;;;;;;;;;17.90;56.87;102088.42;2314692;76;51554;-71
2023/02/15 10:39:29;;;;;;;;;;;;;;;17.89;56.82;102084.91;2292230;76;51545;-72
2023/02/15 10:42:32;;;;;;;;;;;;;;;17.86;56.84;102081.19;2279482;78;49596;-70
2023/02/15 10:45:39;;;;;;;;;;;;;;;17.89;56.79;102074.70;2296415;76;50441;-71
2023/02/15 10:48:48;;;;;;;;;;;;;;;17.85;56.80;102078.14;2319826;75;50279;-71
2023/02/15 10:52:08;;;;;;;;;;;;;;;17.80;56.92;102081.74;2314025;76;50709;-71
2023/02/15 10:55:11;;;;;;;;;;;;;;;17.74;57.08;102072.42;2273809;76;51331;-72
2023/02/15 10:58:15;;;;;;;;;;;;;;;17.73;56.90;102065.89;2319059;76;50498;-72
2023/02/15 11:01:19;;;;;;;;;;;;;;;17.75;56.97;102069.25;2290740;76;51534;-72
2023/02/15 11:04:22;;;;;;;;;;;;;;;17.83;56.81;102069.44;2302720;76;50790;-72
2023/02/15 11:07:28;;;;;;;;;;;;;;;17.85;56.67;102064.75;2277554;76;50815;-71
2023/02/15 11:10:31;;;;;;;;;;;;;;;17.90;56.61;102077.72;2286860;76;51459;-72
2023/02/15 11:13:37;;;;;;;;;;;;;;;17.90;56.56;102064.33;2315858;76;51547;-74
2023/02/15 11:16:40;;;;;;;;;;;;;;;17.72;52.99;102057.48;2295110;76;50331;-75
2023/02/15 11:19:46;;;;;;;;;;;;;;;17.60;55.50;102055.48;2291030;76;52419;-74
2023/02/15 11:22:48;;;;;;;;;;;;;;;17.55;55.75;102045.19;2311200;76;50322;-74
2023/02/15 11:26:00;;;;;;;;;;;;;;;17.51;55.56;102042.44;2314146;76;51585;-74
2023/02/15 11:29:09;;;;;;;;;;;;;;;17.54;55.49;102041.31;2316530;76;50646;-73
2023/02/15 11:32:21;;;;;;;;;;;;;;;17.60;55.94;102034.91;2283487;76;51548;-74
2023/02/15 11:35:25;;;;;;;;;;;;;;;17.66;57.36;102035.32;2282890;76;50333;-72
2023/02/15 11:38:28;;;;;;;;;;;;;;;17.75;57.50;102030.42;2283395;76;50418;-72
2023/02/15 11:41:32;;;;;;;;;;;;;;;17.84;56.83;102021.58;2280964;77;50412;-72
2023/02/15 11:44:37;;;;;;;;;;;;;;;17.96;56.39;102021.77;2281567;78;52429;-72
2023/02/15 11:47:39;;;;;;;;;;;;;;;18.00;56.25;102015.11;2281862;78;50391;-72
2023/02/15 11:50:40;;;;;;;;;;;;;;;17.97;56.15;102010.05;2281878;78;50196;-71
2023/02/15 11:53:43;;;;;;;;;;;;;;;18.05;55.87;102004.80;2281695;76;50414;-70
2023/02/15 11:56:45;;;;;;;;;;;;;;;18.09;55.69;101994.66;2289698;77;51749;-71
2023/02/15 11:59:47;;;;;;;;;;;;;;;18.03;55.76;101994.75;2279716;76;50790;-70
2023/02/15 12:02:51;;;;;;;;;;;;;;;17.97;55.83;102000.67;2279643;78;50293;-71
2023/02/15 12:05:54;;;;;;;;;;;;;;;17.94;55.89;102003.65;2279784;78;51508;-69
2023/02/15 12:08:57;;;;;;;;;;;;;;;17.92;55.90;102000.77;2270125;76;51047;-71
2023/02/15 12:12:17;;;;;;;;;;;;;;;17.95;55.78;101999.97;2319190;76;50315;-71
2023/02/15 12:15:19;;;;;;;;;;;;;;;17.88;55.90;102003.37;2319416;76;51492;-70
2023/02/15 12:18:39;;;;;;;;;;;;;;;17.74;56.28;102000.64;2321073;76;51582;-71
2023/02/15 12:21:41;;;;;;;;;;;;;;;17.71;56.37;102000.94;2320975;76;51248;-71
2023/02/15 12:24:46;;;;;;;;;;;;;;;17.62;56.52;101987.44;2308945;76;51597;-71
2023/02/15 12:27:48;;;;;;;;;;;;;;;17.61;56.54;101987.56;2312763;76;50328;-70
2023/02/15 12:30:49;;;;;;;;;;;;;;;17.57;56.65;101985.68;2300516;76;51436;-71
2023/02/15 12:33:51;;;;;;;;;;;;;;;17.56;56.66;101981.30;2304193;76;52436;-71
2023/02/15 12:37:01;;;;;;;;;;;;;;;17.54;56.61;101979.25;2300565;76;50371;-71
2023/02/15 12:40:00;;;;;;;;;;;;;;;17.54;56.69;101973.91;2300505;76;22318;-71
2023/02/15 12:43:08;;;;;;;;;;;;;;;17.57;56.67;101968.75;2300323;76;50267;-71
2023/02/15 12:46:12;;;;;;;;;;;;;;;17.71;56.33;101963.46;2304759;76;22699;-70
2023/02/15 12:49:15;;;;;;;;;;;;;;;17.64;56.38;101958.66;2300223;76;50480;-71
2023/02/15 12:52:21;;;;;;;;;;;;;;;17.63;56.40;101947.63;2300309;76;50426;-71
2023/02/15 12:55:29;;;;;;;;;;;;;;;17.62;56.45;101949.96;2300866;76;50693;-71
2023/02/15 12:58:30;;;;;;;;;;;;;;;17.59;56.50;101943.53;2313407;76;22321;-71
2023/02/15 13:01:32;;;;;;;;;;;;;;;17.56;56.60;101938.48;2321627;76;50705;-70
2023/02/15 13:04:33;;;;;;;;;;;;;;;17.56;56.64;101933.62;2321456;76;50234;-71
2023/02/15 13:07:35;;;;;;;;;;;;;;;17.55;56.64;101932.79;2321398;76;50640;-72
2023/02/15 13:10:37;;;;;;;;;;;;;;;17.54;56.67;101926.23;2321412;76;50608;-71
2023/02/15 13:13:40;;;;;;;;;;;;;;;17.54;56.68;101922.22;2321314;76;50532;-71
2023/02/15 13:16:42;;;;;;;;;;;;;;;17.56;56.62;101917.07;2320991;76;50332;-72
2023/02/15 13:19:45;;;;;;;;;;;;;;;17.62;56.48;101915.16;2321442;76;49951;-71
2023/02/15 13:22:47;;;;;;;;;;;;;;;17.61;56.50;101908.61;2309040;76;51516;-71
2023/02/15 13:25:50;;;;;;;;;;;;;;;17.59;56.53;101906.06;2306134;76;50510;-72
2023/02/15 13:28:55;;;;;;;;;;;;;;;17.57;56.57;101908.07;2314991;76;51528;-72
2023/02/15 13:31:58;;;;;;;;;;;;;;;17.55;56.66;101895.33;2319419;76;50741;-72
2023/02/15 13:35:00;;;;;;;;;;;;;;;17.52;56.71;101886.25;2321280;76;51709;-72
2023/02/15 13:38:19;;;;;;;;;;;;;;;17.51;56.77;101887.22;2319553;76;50273;-72
2023/02/15 13:41:22;;;;;;;;;;;;;;;17.50;56.78;101878.86;2319546;76;51512;-72
2023/02/15 13:44:28;;;;;;;;;;;;;;;17.50;56.80;101874.84;2319401;76;51240;-70
2023/02/15 13:47:43;;;;;;;;;;;;;;;17.51;56.80;101872.50;2294586;76;51247;-70
2023/02/15 13:50:49;;;;;;;;;;;;;;;17.51;56.74;101871.17;2319568;76;50368;-69
2023/02/15 13:54:09;;;;;;;;;;;;;;;17.54;56.71;101868.69;2319022;76;52436;-71
2023/02/15 13:57:15;;;;;;;;;;;;;;;17.58;56.62;101868.26;2315276;76;51452;-71
2023/02/15 14:00:18;;;;;;;;;;;;;;;17.59;56.57;101867.76;2277089;76;51218;-70
2023/02/15 14:03:22;;;;;;;;;;;;;;;17.57;56.63;101863.91;2317212;76;51541;-72
2023/02/15 14:06:34;;;;;;;;;;;;;;;17.54;56.69;101865.52;2321547;76;51502;-70
2023/02/15 14:09:54;;;;;;;;;;;;;;;17.52;56.77;101871.53;2321438;76;50301;-70
2023/02/15 14:12:58;;;;;;;;;;;;;;;17.52;56.80;101871.53;2323379;76;50921;-70
2023/02/15 14:16:16;;;;;;;;;;;;;;;17.52;56.82;101884.05;2320550;76;51542;-70
2023/02/15 14:19:22;;;;;;;;;;;;;;;17.49;56.81;101878.49;2312125;76;51554;-72
2023/02/15 14:22:26;;;;;;;;;;;;;;;17.49;56.81;101881.16;2294861;76;50817;-70
2023/02/15 14:25:35;;;;;;;;;;;;;;;17.50;56.77;101882.88;2292159;76;51158;-70
2023/02/15 14:28:44;;;;;;;;;;;;;;;17.51;56.70;101872.50;2325554;75;51491;-70
2023/02/15 14:31:50;;;;;;;;;;;;;;;17.54;56.67;101867.36;2325539;76;50333;-70
2023/02/15 14:34:59;;;;;;;;;;;;;;;17.51;56.72;101856.45;2325577;76;50821;-70
2023/02/15 14:38:15;;;;;;;;;;;;;;;17.50;56.79;101855.27;2303727;75;51738;-70
2023/02/15 14:41:34;;;;;;;;;;;;;;;17.48;56.79;101851.39;2325640;76;51536;-72
2023/02/15 14:44:42;;;;;;;;;;;;;;;17.48;56.82;101851.39;2287683;77;50241;-71
2023/02/15 14:47:48;;;;;;;;;;;;;;;17.46;56.83;101848.02;2288028;77;50742;-70
2023/02/15 14:50:50;;;;;;;;;;;;;;;17.45;56.83;101845.00;2257997;76;51584;-71
2023/02/15 14:53:51;;;;;;;;;;;;;;;17.45;56.88;101843.67;2262360;78;51559;-69
2023/02/15 14:56:55;;;;;;;;;;;;;;;17.44;56.93;101849.15;2230138;77;52391;-70
2023/02/15 14:59:57;;;;;;;;;;;;;;;17.44;56.96;101845.14;2262665;78;50468;-69
2023/02/15 15:02:59;;;;;;;;;;;;;;;17.47;56.85;101844.37;2254513;78;51376;-71
2023/02/15 15:06:01;;;;;;;;;;;;;;;17.48;56.81;101832.66;2279824;78;50333;-71
2023/02/15 15:09:23;;;;;;;;;;;;;;;17.49;56.75;101833.50;2279877;78;51483;-70
2023/02/15 15:12:26;;;;;;;;;;;;;;;17.49;56.73;101833.00;2279685;77;51507;-71
2023/02/15 15:15:32;;;;;;;;;;;;;;;17.48;56.78;101837.18;2254663;78;52624;-71
2023/02/15 15:18:44;;;;;;;;;;;;;;;17.47;56.82;101835.47;2296847;76;50417;-72
2023/02/15 15:21:53;;;;;;;;;;;;;;;17.45;56.83;101822.27;2295357;76;50188;-70
2023/02/15 15:25:01;;;;;;;;;;;;;;;17.44;56.86;101816.55;2285688;78;50668;-70
2023/02/15 15:28:04;;;;;;;;;;;;;;;17.42;56.91;101819.89;2262045;78;51782;-70
2023/02/15 15:31:10;;;;;;;;;;;;;;;17.43;56.90;101828.75;2287429;77;51524;-70
2023/02/15 15:34:19;;;;;;;;;;;;;;;17.40;56.98;101830.72;2285769;76;50259;-71
2023/02/15 15:37:23;;;;;;;;;;;;;;;17.45;56.87;101830.28;2285796;78;51518;-71
2023/02/15 15:40:26;;;;;;;;;;;;;;;17.46;56.84;101838.66;2285772;76;51663;-70
2023/02/15 15:43:46;;;;;;;;;;;;;;;17.46;56.85;101844.00;2286008;76;50492;-71
2023/02/15 15:47:04;;;;;;;;;;;;;;;17.47;56.77;101837.68;2285852;76;50369;-72
2023/02/15 15:50:07;;;;;;;;;;;;;;;17.44;56.90;101839.28;2314875;75;50418;-72
2023/02/15 15:53:10;;;;;;;;;;;;;;;17.42;56.90;101834.60;2294547;76;51713;-71
2023/02/15 15:56:13;;;;;;;;;;;;;;;17.40;56.92;101838.75;2319249;76;50698;-72
2023/02/15 15:59:17;;;;;;;;;;;;;;;17.39;56.93;101837.55;2319182;76;51488;-71
2023/02/15 16:02:18;;;;;;;;;;;;;;;17.39;56.93;101834.87;2319049;76;51694;-71
2023/02/15 16:05:20;;;;;;;;;;;;;;;17.38;56.96;101829.18;2295039;76;51222;-71
2023/02/15 16:08:28;;;;;;;;;;;;;;;17.38;56.96;101829.18;2319155;76;51422;-71
2023/02/15 16:11:30;;;;;;;;;;;;;;;17.39;56.98;101825.50;2321607;76;51587;-72
2023/02/15 16:14:32;;;;;;;;;;;;;;;17.46;56.74;101815.91;2321116;76;50636;-71